sensor_id;sensor_type;location;lat;lon;timestamp;pressure;altitude;pressure_sealevel;temperature;humidity
84924;BME280;75286;52.218;5.180;2024-02-21T00:01:17;102161.41;;;9.24;100.00
84924;BME280;75286;52.218;5.180;2024-02-21T00:04:12;102154.91;;;9.20;100.00
84924;BME280;75286;52.218;5.180;2024-02-21T00:07:05;102148.13;;;9.19;100.00
84924;BME280;75286;52.218;5.180;2024-02-21T00:09:45;102154.34;;;9.26;100.00
84924;BME280;75286;52.218;5.180;2024-02-21T00:12:13;102142.03;;;9.20;100.00
84924;BME280;75286;52.218;5.180;2024-02-21T00:15:06;102148.81;;;9.21;100.00
84924;BME280;75286;52.218;5.180;2024-02-21T00:17:47;102144.59;;;9.20;100.00
84924;BME280;75286;52.218;5.180;2024-02-21T00:20:23;102136.72;;;9.21;100.00
84924;BME280;75286;52.218;5.180;2024-02-21T00:23:00;102148.38;;;9.25;100.00
84924;BME280;75286;52.218;5.180;2024-02-21T00:25:42;102147.25;;;9.28;100.00
84924;BME280;75286;52.218;5.180;2024-02-21T00:28:17;102140.09;;;9.22;100.00
84924;BME280;75286;52.218;5.180;2024-02-21T00:30:59;102140.50;;;9.27;100.00
84924;BME280;75286;52.218;5.180;2024-02-21T00:33:51;102155.56;;;9.22;100.00
84924;BME280;75286;52.218;5.180;2024-02-21T00:36:22;102146.38;;;9.19;100.00
84924;BME280;75286;52.218;5.180;2024-02-21T00:38:53;102160.16;;;9.28;100.00
84924;BME280;75286;52.218;5.180;2024-02-21T00:41:37;102146.75;;;9.24;100.00
84924;BME280;75286;52.218;5.180;2024-02-21T00:44:11;102139.94;;;9.23;100.00
84924;BME280;75286;52.218;5.180;2024-02-21T00:46:54;102142.91;;;9.28;100.00
84924;BME280;75286;52.218;5.180;2024-02-21T00:49:38;102127.72;;;9.25;100.00
84924;BME280;75286;52.218;5.180;2024-02-21T00:52:16;102128.81;;;9.23;100.00
84924;BME280;75286;52.218;5.180;2024-02-21T00:54:44;102125.16;;;9.25;100.00
84924;BME280;75286;52.218;5.180;2024-02-21T00:57:09;102144.81;;;9.36;100.00
84924;BME280;75286;52.218;5.180;2024-02-21T00:59:49;102142.91;;;9.28;100.00
84924;BME280;75286;52.218;5.180;2024-02-21T01:02:15;102150.91;;;9.35;100.00
84924;BME280;75286;52.218;5.180;2024-02-21T01:04:40;102144.56;;;9.29;100.00
84924;BME280;75286;52.218;5.180;2024-02-21T01:07:18;102122.03;;;9.22;100.00
84924;BME280;75286;52.218;5.180;2024-02-21T01:09:59;102152.53;;;9.36;100.00
84924;BME280;75286;52.218;5.180;2024-02-21T01:12:33;102138.13;;;9.33;100.00
84924;BME280;75286;52.218;5.180;2024-02-21T01:15:11;102130.56;;;9.32;100.00
84924;BME280;75286;52.218;5.180;2024-02-21T01:17:58;102125.28;;;9.24;100.00
84924;BME280;75286;52.218;5.180;2024-02-21T01:20:35;102124.59;;;9.22;100.00
84924;BME280;75286;52.218;5.180;2024-02-21T01:23:16;102124.84;;;9.28;100.00
84924;BME280;75286;52.218;5.180;2024-02-21T01:25:51;102119.66;;;9.38;100.00
84924;BME280;75286;52.218;5.180;2024-02-21T01:28:18;102114.41;;;9.30;100.00
84924;BME280;75286;52.218;5.180;2024-02-21T01:30:43;102124.97;;;9.36;100.00
84924;BME280;75286;52.218;5.180;2024-02-21T01:33:12;102108.72;;;9.26;100.00
84924;BME280;75286;52.218;5.180;2024-02-21T01:35:38;102092.66;;;9.32;100.00
84924;BME280;75286;52.218;5.180;2024-02-21T01:38:03;102078.84;;;9.24;100.00
84924;BME280;75286;52.218;5.180;2024-02-21T01:40:33;102085.44;;;9.36;100.00
84924;BME280;75286;52.218;5.180;2024-02-21T01:43:16;102076.63;;;9.29;100.00
84924;BME280;75286;52.218;5.180;2024-02-21T01:45:52;102061.59;;;9.24;100.00
84924;BME280;75286;52.218;5.180;2024-02-21T01:48:44;102064.31;;;9.23;100.00
84924;BME280;75286;52.218;5.180;2024-02-21T01:51:11;102082.56;;;9.39;100.00
84924;BME280;75286;52.218;5.180;2024-02-21T01:53:49;102069.84;;;9.28;100.00
84924;BME280;75286;52.218;5.180;2024-02-21T01:56:25;102065.50;;;9.28;100.00
84924;BME280;75286;52.218;5.180;2024-02-21T01:59:11;102081.75;;;9.38;100.00
84924;BME280;75286;52.218;5.180;2024-02-21T02:01:50;102074.97;;;9.37;100.00
84924;BME280;75286;52.218;5.180;2024-02-21T02:04:31;102068.63;;;9.32;100.00
84924;BME280;75286;52.218;5.180;2024-02-21T02:07:04;102074.16;;;9.37;100.00
84924;BME280;75286;52.218;5.180;2024-02-21T02:09:48;102064.47;;;9.39;100.00
84924;BME280;75286;52.218;5.180;2024-02-21T02:12:24;102059.63;;;9.36;100.00
84924;BME280;75286;52.218;5.180;2024-02-21T02:15:02;102051.75;;;9.37;100.00
84924;BME280;75286;52.218;5.180;2024-02-21T02:17:42;102042.13;;;9.30;100.00
84924;BME280;75286;52.218;5.180;2024-02-21T02:20:23;102060.81;;;9.41;100.00
84924;BME280;75286;52.218;5.180;2024-02-21T02:23:11;102051.31;;;9.42;100.00
84924;BME280;75286;52.218;5.180;2024-02-21T02:25:40;102051.31;;;9.42;100.00
84924;BME280;75286;52.218;5.180;2024-02-21T02:28:08;102050.13;;;9.36;100.00
84924;BME280;75286;52.218;5.180;2024-02-21T02:30:37;102036.16;;;9.29;100.00
84924;BME280;75286;52.218;5.180;2024-02-21T02:33:05;102034.75;;;9.35;100.00
84924;BME280;75286;52.218;5.180;2024-02-21T02:35:43;102028.53;;;9.28;100.00
84924;BME280;75286;52.218;5.180;2024-02-21T02:38:20;102037.47;;;9.33;100.00
84924;BME280;75286;52.218;5.180;2024-02-21T02:41:02;102051.31;;;9.42;100.00
84924;BME280;75286;52.218;5.180;2024-02-21T02:43:40;102028.41;;;9.29;100.00
84924;BME280;75286;52.218;5.180;2024-02-21T02:46:22;102038.25;;;9.43;100.00
84924;BME280;75286;52.218;5.180;2024-02-21T02:48:56;102023.78;;;9.33;100.00
84924;BME280;75286;52.218;5.180;2024-02-21T02:52:09;102018.09;;;9.29;100.00
84924;BME280;75286;52.218;5.180;2024-02-21T02:54:40;102021.59;;;9.38;100.00
84924;BME280;75286;52.218;5.180;2024-02-21T02:57:05;102007.31;;;9.34;100.00
84924;BME280;75286;52.218;5.180;2024-02-21T02:59:32;101999.75;;;9.32;100.00
84924;BME280;75286;52.218;5.180;2024-02-21T03:02:22;102019.19;;;9.44;100.00
84924;BME280;75286;52.218;5.180;2024-02-21T03:04:51;102008.69;;;9.38;100.00
84924;BME280;75286;52.218;5.180;2024-02-21T03:07:31;102005.41;;;9.36;100.00
84924;BME280;75286;52.218;5.180;2024-02-21T03:10:14;101986.16;;;9.30;100.00
84924;BME280;75286;52.218;5.180;2024-02-21T03:12:53;101998.34;;;9.38;100.00
84924;BME280;75286;52.218;5.180;2024-02-21T03:15:29;102004.16;;;9.40;100.00
84924;BME280;75286;52.218;5.180;2024-02-21T03:18:07;101991.69;;;9.35;100.00
84924;BME280;75286;52.218;5.180;2024-02-21T03:20:45;101991.56;;;9.37;100.00
84924;BME280;75286;52.218;5.180;2024-02-21T03:23:23;101966.63;;;9.28;100.00
84924;BME280;75286;52.218;5.180;2024-02-21T03:26:06;101963.38;;;9.26;100.00
84924;BME280;75286;52.218;5.180;2024-02-21T03:28:49;101967.78;;;9.33;100.00
84924;BME280;75286;52.218;5.180;2024-02-21T03:31:29;101970.25;;;9.35;100.00
84924;BME280;75286;52.218;5.180;2024-02-21T03:34:07;101957.34;;;9.35;100.00
84924;BME280;75286;52.218;5.180;2024-02-21T03:36:41;101951.66;;;9.31;100.00
84924;BME280;75286;52.218;5.180;2024-02-21T03:39:19;101935.63;;;9.28;100.00
84924;BME280;75286;52.218;5.180;2024-02-21T03:41:58;101942.97;;;9.32;100.00
84924;BME280;75286;52.218;5.180;2024-02-21T03:44:38;101943.91;;;9.31;100.00
84924;BME280;75286;52.218;5.180;2024-02-21T03:47:12;101950.41;;;9.35;100.00
84924;BME280;75286;52.218;5.180;2024-02-21T03:49:56;101942.44;;;9.29;100.00
84924;BME280;75286;52.218;5.180;2024-02-21T03:52:36;101962.34;;;9.36;100.00
84924;BME280;75286;52.218;5.180;2024-02-21T03:55:10;101951.81;;;9.30;100.00
84924;BME280;75286;52.218;5.180;2024-02-21T03:57:56;101952.03;;;9.36;100.00
84924;BME280;75286;52.218;5.180;2024-02-21T04:00:34;101947.31;;;9.32;100.00
84924;BME280;75286;52.218;5.180;2024-02-21T04:03:06;101951.22;;;9.36;100.00
84924;BME280;75286;52.218;5.180;2024-02-21T04:05:47;101933.13;;;9.18;100.00
84924;BME280;75286;52.218;5.180;2024-02-21T04:08:34;101951.53;;;9.33;100.00
84924;BME280;75286;52.218;5.180;2024-02-21T04:11:03;101927.53;;;9.23;100.00
84924;BME280;75286;52.218;5.180;2024-02-21T04:13:47;101916.13;;;9.25;100.00
84924;BME280;75286;52.218;5.180;2024-02-21T04:16:31;101924.09;;;9.32;100.00
84924;BME280;75286;52.218;5.180;2024-02-21T04:19:11;101918.38;;;9.28;100.00
84924;BME280;75286;52.218;5.180;2024-02-21T04:21:49;101919.22;;;9.29;100.00
84924;BME280;75286;52.218;5.180;2024-02-21T04:24:30;101923.03;;;9.25;100.00
84924;BME280;75286;52.218;5.180;2024-02-21T04:27:10;101908.28;;;9.17;100.00
84924;BME280;75286;52.218;5.180;2024-02-21T04:29:42;101925.50;;;9.26;100.00
84924;BME280;75286;52.218;5.180;2024-02-21T04:34:58;101921.06;;;9.19;100.00
84924;BME280;75286;52.218;5.180;2024-02-21T04:37:41;101922.16;;;9.16;100.00
84924;BME280;75286;52.218;5.180;2024-02-21T04:40:25;101916.34;;;9.14;100.00
84924;BME280;75286;52.218;5.180;2024-02-21T04:45:43;101896.78;;;9.12;100.00
84924;BME280;75286;52.218;5.180;2024-02-21T04:48:20;101894.78;;;9.05;100.00
84924;BME280;75286;52.218;5.180;2024-02-21T04:51:03;101898.72;;;9.09;100.00
84924;BME280;75286;52.218;5.180;2024-02-21T04:53:34;101892.38;;;9.04;100.00
84924;BME280;75286;52.218;5.180;2024-02-21T04:56:12;101905.94;;;9.06;100.00
84924;BME280;75286;52.218;5.180;2024-02-21T04:58:50;101894.44;;;9.00;100.00
84924;BME280;75286;52.218;5.180;2024-02-21T05:01:34;101897.69;;;9.02;100.00
84924;BME280;75286;52.218;5.180;2024-02-21T05:04:25;101909.47;;;9.05;100.00
84924;BME280;75286;52.218;5.180;2024-02-21T05:06:56;101887.94;;;8.96;100.00
84924;BME280;75286;52.218;5.180;2024-02-21T05:09:30;101882.94;;;8.95;100.00
84924;BME280;75286;52.218;5.180;2024-02-21T05:12:11;101880.22;;;8.96;100.00
84924;BME280;75286;52.218;5.180;2024-02-21T05:14:46;101866.63;;;8.94;100.00
84924;BME280;75286;52.218;5.180;2024-02-21T05:17:27;101867.59;;;8.93;100.00
84924;BME280;75286;52.218;5.180;2024-02-21T05:20:05;101872.69;;;9.03;100.00
84924;BME280;75286;52.218;5.180;2024-02-21T05:22:47;101868.13;;;8.97;100.00
84924;BME280;75286;52.218;5.180;2024-02-21T05:25:40;101873.94;;;8.99;100.00
84924;BME280;75286;52.218;5.180;2024-02-21T05:28:05;101855.38;;;8.95;100.00
84924;BME280;75286;52.218;5.180;2024-02-21T05:30:46;101859.00;;;9.02;100.00
84924;BME280;75286;52.218;5.180;2024-02-21T05:33:24;101830.75;;;8.83;100.00
84924;BME280;75286;52.218;5.180;2024-02-21T05:36:05;101853.00;;;9.02;100.00
84924;BME280;75286;52.218;5.180;2024-02-21T05:38:46;101827.94;;;8.94;100.00
84924;BME280;75286;52.218;5.180;2024-02-21T05:41:20;101828.63;;;8.96;100.00
84924;BME280;75286;52.218;5.180;2024-02-21T05:44:00;101821.03;;;8.95;100.00
84924;BME280;75286;52.218;5.180;2024-02-21T05:46:28;101811.84;;;8.92;100.00
84924;BME280;75286;52.218;5.180;2024-02-21T05:48:54;101799.06;;;8.91;100.00
84924;BME280;75286;52.218;5.180;2024-02-21T05:51:33;101807.19;;;8.96;100.00
84924;BME280;75286;52.218;5.180;2024-02-21T05:54:01;101816.00;;;8.93;100.00
84924;BME280;75286;52.218;5.180;2024-02-21T05:56:26;101801.78;;;8.89;100.00
84924;BME280;75286;52.218;5.180;2024-02-21T05:58:52;101808.00;;;8.96;100.00
84924;BME280;75286;52.218;5.180;2024-02-21T06:01:17;101796.63;;;8.89;100.00
84924;BME280;75286;52.218;5.180;2024-02-21T06:03:43;101799.88;;;8.91;100.00
84924;BME280;75286;52.218;5.180;2024-02-21T06:06:13;101806.22;;;8.97;100.00
84924;BME280;75286;52.218;5.180;2024-02-21T06:08:40;101802.16;;;8.94;100.00
84924;BME280;75286;52.218;5.180;2024-02-21T06:11:08;101787.44;;;8.87;100.00
84924;BME280;75286;52.218;5.180;2024-02-21T06:13:40;101787.50;;;8.95;100.00
84924;BME280;75286;52.218;5.180;2024-02-21T06:16:06;101783.28;;;8.94;100.00
84924;BME280;75286;52.218;5.180;2024-02-21T06:18:35;101798.47;;;8.97;100.00
84924;BME280;75286;52.218;5.180;2024-02-21T06:21:06;101787.00;;;8.91;100.00
84924;BME280;75286;52.218;5.180;2024-02-21T06:23:32;101789.13;;;8.96;100.00
84924;BME280;75286;52.218;5.180;2024-02-21T06:26:14;101795.81;;;8.89;100.00
84924;BME280;75286;52.218;5.180;2024-02-21T06:28:39;101793.38;;;8.87;100.00
84924;BME280;75286;52.218;5.180;2024-02-21T06:31:20;101800.16;;;8.88;100.00
84924;BME280;75286;52.218;5.180;2024-02-21T06:33:45;101796.50;;;8.91;100.00
84924;BME280;75286;52.218;5.180;2024-02-21T06:36:11;101809.38;;;8.91;100.00
84924;BME280;75286;52.218;5.180;2024-02-21T06:38:48;101807.31;;;8.94;100.00
84924;BME280;75286;52.218;5.180;2024-02-21T06:41:27;101795.69;;;8.90;100.00
84924;BME280;75286;52.218;5.180;2024-02-21T06:44:07;101791.78;;;8.86;100.00
84924;BME280;75286;52.218;5.180;2024-02-21T06:46:51;101794.72;;;8.91;100.00
84924;BME280;75286;52.218;5.180;2024-02-21T06:49:25;101790.28;;;8.84;100.00
84924;BME280;75286;52.218;5.180;2024-02-21T06:52:04;101784.56;;;8.90;100.00
84924;BME280;75286;52.218;5.180;2024-02-21T06:54:48;101776.31;;;8.86;100.00
84924;BME280;75286;52.218;5.180;2024-02-21T06:57:20;101774.00;;;8.83;100.00
84924;BME280;75286;52.218;5.180;2024-02-21T07:00:00;101774.69;;;8.85;100.00
84924;BME280;75286;52.218;5.180;2024-02-21T07:02:41;101770.63;;;8.83;100.00
84924;BME280;75286;52.218;5.180;2024-02-21T07:05:14;101772.91;;;8.86;100.00
84924;BME280;75286;52.218;5.180;2024-02-21T07:08:00;101762.25;;;8.81;100.00
84924;BME280;75286;52.218;5.180;2024-02-21T07:10:38;101770.34;;;8.86;100.00
84924;BME280;75286;52.218;5.180;2024-02-21T07:13:12;101768.13;;;8.91;100.00
84924;BME280;75286;52.218;5.180;2024-02-21T07:15:53;101764.81;;;8.81;100.00
84924;BME280;75286;52.218;5.180;2024-02-21T07:18:27;101767.59;;;8.87;100.00
84924;BME280;75286;52.218;5.180;2024-02-21T07:21:24;101757.38;;;8.78;100.00
84924;BME280;75286;52.218;5.180;2024-02-21T07:23:50;101757.72;;;8.83;100.00
84924;BME280;75286;52.218;5.180;2024-02-21T07:26:31;101755.97;;;8.83;100.00
84924;BME280;75286;52.218;5.180;2024-02-21T07:29:02;101755.47;;;8.80;100.00
84924;BME280;75286;52.218;5.180;2024-02-21T07:31:28;101741.75;;;8.79;100.00
84924;BME280;75286;52.218;5.180;2024-02-21T07:34:05;101736.75;;;8.78;100.00
84924;BME280;75286;52.218;5.180;2024-02-21T07:36:31;101732.41;;;8.78;100.00
84924;BME280;75286;52.218;5.180;2024-02-21T07:39:09;101725.69;;;8.85;100.00
84924;BME280;75286;52.218;5.180;2024-02-21T07:41:34;101721.03;;;8.89;100.00
84924;BME280;75286;52.218;5.180;2024-02-21T07:44:00;101730.88;;;8.93;100.00
84924;BME280;75286;52.218;5.180;2024-02-21T07:46:31;101696.78;;;8.82;100.00
84924;BME280;75286;52.218;5.180;2024-02-21T07:49:17;101703.13;;;8.87;100.00
84924;BME280;75286;52.218;5.180;2024-02-21T07:51:48;101700.94;;;8.92;100.00
84924;BME280;75286;52.218;5.180;2024-02-21T07:54:14;101712.19;;;8.91;100.00
84924;BME280;75286;52.218;5.180;2024-02-21T07:56:39;101702.16;;;8.88;100.00
84924;BME280;75286;52.218;5.180;2024-02-21T07:59:17;101696.66;;;8.83;100.00
84924;BME280;75286;52.218;5.180;2024-02-21T08:02:07;101721.84;;;8.89;100.00
84924;BME280;75286;52.218;5.180;2024-02-21T08:04:33;101708.94;;;8.89;100.00
84924;BME280;75286;52.218;5.180;2024-02-21T08:06:58;101701.88;;;8.91;100.00
84924;BME280;75286;52.218;5.180;2024-02-21T08:09:51;101709.91;;;8.88;100.00
84924;BME280;75286;52.218;5.180;2024-02-21T08:12:25;101701.13;;;8.81;100.00
84924;BME280;75286;52.218;5.180;2024-02-21T08:15:06;101691.34;;;8.85;100.00
84924;BME280;75286;52.218;5.180;2024-02-21T08:18:02;101705.91;;;8.94;100.00
84924;BME280;75286;52.218;5.180;2024-02-21T08:20:35;101693.97;;;8.93;100.00
84924;BME280;75286;52.218;5.180;2024-02-21T08:23:23;101698.34;;;8.92;100.00
84924;BME280;75286;52.218;5.180;2024-02-21T08:26:32;101678.81;;;8.90;100.00
84924;BME280;75286;52.218;5.180;2024-02-21T08:29:00;101676.44;;;8.96;100.00
84924;BME280;75286;52.218;5.180;2024-02-21T08:34:00;101668.63;;;8.88;100.00
84924;BME280;75286;52.218;5.180;2024-02-21T08:36:36;101660.63;;;8.91;100.00
84924;BME280;75286;52.218;5.180;2024-02-21T08:39:03;101663.53;;;8.96;100.00
84924;BME280;75286;52.218;5.180;2024-02-21T08:41:31;101664.03;;;9.00;100.00
84924;BME280;75286;52.218;5.180;2024-02-21T08:43:56;101652.09;;;8.99;100.00
84924;BME280;75286;52.218;5.180;2024-02-21T08:46:22;101645.84;;;9.01;100.00
84924;BME280;75286;52.218;5.180;2024-02-21T08:48:50;101641.78;;;8.99;100.00
84924;BME280;75286;52.218;5.180;2024-02-21T08:51:16;101656.38;;;9.08;100.00
84924;BME280;75286;52.218;5.180;2024-02-21T08:53:42;101637.00;;;9.04;100.00
84924;BME280;75286;52.218;5.180;2024-02-21T08:56:07;101643.31;;;9.09;100.00
84924;BME280;75286;52.218;5.180;2024-02-21T08:58:33;101644.78;;;9.12;100.00
84924;BME280;75286;52.218;5.180;2024-02-21T09:00:58;101640.88;;;9.08;100.00
84924;BME280;75286;52.218;5.180;2024-02-21T09:03:24;101641.19;;;9.05;100.00
84924;BME280;75286;52.218;5.180;2024-02-21T09:05:50;101628.47;;;9.12;100.00
84924;BME280;75286;52.218;5.180;2024-02-21T09:08:15;101634.31;;;9.14;100.00
84924;BME280;75286;52.218;5.180;2024-02-21T09:10:41;101628.81;;;9.17;100.00
84924;BME280;75286;52.218;5.180;2024-02-21T09:13:06;101624.47;;;9.17;100.00
84924;BME280;75286;52.218;5.180;2024-02-21T09:15:33;101626.59;;;9.22;99.38
84924;BME280;75286;52.218;5.180;2024-02-21T09:17:59;101626.44;;;9.23;99.73
84924;BME280;75286;52.218;5.180;2024-02-21T09:20:24;101624.00;;;9.22;99.73
84924;BME280;75286;52.218;5.180;2024-02-21T09:22:50;101607.06;;;9.19;99.32
84924;BME280;75286;52.218;5.180;2024-02-21T09:25:15;101593.50;;;9.17;98.92
84924;BME280;75286;52.218;5.180;2024-02-21T09:27:41;101602.06;;;9.18;98.57
84924;BME280;75286;52.218;5.180;2024-02-21T09:30:06;101596.28;;;9.16;98.71
84924;BME280;75286;52.218;5.180;2024-02-21T09:32:32;101580.28;;;9.12;98.66
84924;BME280;75286;52.218;5.180;2024-02-21T09:35:01;101584.16;;;9.16;99.07
84924;BME280;75286;52.218;5.180;2024-02-21T09:37:26;101583.81;;;9.11;98.99
84924;BME280;75286;52.218;5.180;2024-02-21T09:39:52;101557.19;;;9.10;99.10
84924;BME280;75286;52.218;5.180;2024-02-21T09:42:21;101573.19;;;9.14;98.83
84924;BME280;75286;52.218;5.180;2024-02-21T09:44:47;101564.31;;;9.17;98.00
84924;BME280;75286;52.218;5.180;2024-02-21T09:47:19;101545.44;;;9.16;98.95
84924;BME280;75286;52.218;5.180;2024-02-21T09:49:47;101544.38;;;9.27;98.27
84924;BME280;75286;52.218;5.180;2024-02-21T09:52:15;101530.50;;;9.20;98.10
84924;BME280;75286;52.218;5.180;2024-02-21T09:54:40;101534.69;;;9.29;97.96
84924;BME280;75286;52.218;5.180;2024-02-21T09:57:10;101517.94;;;9.33;97.41
84924;BME280;75286;52.218;5.180;2024-02-21T09:59:39;101513.56;;;9.33;97.41
84924;BME280;75286;52.218;5.180;2024-02-21T10:02:09;101505.19;;;9.31;97.53
84924;BME280;75286;52.218;5.180;2024-02-21T10:04:55;101489.22;;;9.28;96.74
84924;BME280;75286;52.218;5.180;2024-02-21T10:07:20;101492.28;;;9.31;96.87
84924;BME280;75286;52.218;5.180;2024-02-21T10:09:48;101487.75;;;9.25;96.43
84924;BME280;75286;52.218;5.180;2024-02-21T10:12:13;101492.94;;;9.33;96.73
84924;BME280;75286;52.218;5.180;2024-02-21T10:14:50;101487.47;;;9.36;95.85
84924;BME280;75286;52.218;5.180;2024-02-21T10:17:24;101482.16;;;9.38;95.96
84924;BME280;75286;52.218;5.180;2024-02-21T10:19:50;101475.56;;;9.43;95.29
84924;BME280;75286;52.218;5.180;2024-02-21T10:22:19;101460.84;;;9.36;95.88
84924;BME280;75286;52.218;5.180;2024-02-21T10:25:07;101453.13;;;9.44;95.11
84924;BME280;75286;52.218;5.180;2024-02-21T10:27:32;101452.78;;;9.47;95.72
84924;BME280;75286;52.218;5.180;2024-02-21T10:29:57;101456.34;;;9.54;95.21
84924;BME280;75286;52.218;5.180;2024-02-21T10:32:23;101456.84;;;9.58;95.27
84924;BME280;75286;52.218;5.180;2024-02-21T10:34:50;101443.28;;;9.64;95.10
84924;BME280;75286;52.218;5.180;2024-02-21T10:37:17;101427.16;;;9.62;95.02
84924;BME280;75286;52.218;5.180;2024-02-21T10:39:42;101427.81;;;9.56;94.62
84924;BME280;75286;52.218;5.180;2024-02-21T10:42:14;101427.00;;;9.55;94.61
84924;BME280;75286;52.218;5.180;2024-02-21T10:44:42;101422.78;;;9.62;94.41
84924;BME280;75286;52.218;5.180;2024-02-21T10:47:10;101413.59;;;9.68;94.09
84924;BME280;75286;52.218;5.180;2024-02-21T10:49:40;101404.06;;;9.68;93.74
84924;BME280;75286;52.218;5.180;2024-02-21T10:52:14;101385.03;;;9.77;92.97
84924;BME280;75286;52.218;5.180;2024-02-21T10:54:56;101384.38;;;9.75;93.81
84924;BME280;75286;52.218;5.180;2024-02-21T10:57:26;101361.94;;;9.76;93.89
84924;BME280;75286;52.218;5.180;2024-02-21T10:59:53;101343.88;;;9.76;93.68
84924;BME280;75286;52.218;5.180;2024-02-21T11:02:19;101339.34;;;9.78;93.62
84924;BME280;75286;52.218;5.180;2024-02-21T11:04:46;101407.44;;;9.85;93.49
84924;BME280;75286;52.218;5.180;2024-02-21T11:07:12;101414.22;;;9.86;93.55
84924;BME280;75286;52.218;5.180;2024-02-21T11:09:38;101406.50;;;9.78;93.33
84924;BME280;75286;52.218;5.180;2024-02-21T11:12:06;101409.88;;;9.78;93.76
84924;BME280;75286;52.218;5.180;2024-02-21T11:14:33;101411.34;;;9.73;93.77
84924;BME280;75286;52.218;5.180;2024-02-21T11:17:02;101406.66;;;9.76;94.09
84924;BME280;75286;52.218;5.180;2024-02-21T11:19:29;101407.94;;;9.80;94.13
84924;BME280;75286;52.218;5.180;2024-02-21T11:21:56;101397.28;;;9.83;93.84
84924;BME280;75286;52.218;5.180;2024-02-21T11:24:32;101396.97;;;9.78;93.18
84924;BME280;75286;52.218;5.180;2024-02-21T11:27:27;101390.03;;;9.71;93.94
84924;BME280;75286;52.218;5.180;2024-02-21T11:29:56;101373.06;;;9.68;93.55
84924;BME280;75286;52.218;5.180;2024-02-21T11:32:22;101372.78;;;9.71;93.72
84924;BME280;75286;52.218;5.180;2024-02-21T11:37:27;101358.59;;;9.67;93.53
84924;BME280;75286;52.218;5.180;2024-02-21T11:39:54;101336.31;;;9.66;92.95
84924;BME280;75286;52.218;5.180;2024-02-21T11:42:19;101328.06;;;9.71;92.51
84924;BME280;75286;52.218;5.180;2024-02-21T11:44:45;101326.59;;;9.68;92.75
84924;BME280;75286;52.218;5.180;2024-02-21T11:47:10;101329.03;;;9.70;91.77
84924;BME280;75286;52.218;5.180;2024-02-21T11:49:38;101327.59;;;9.67;92.25
84924;BME280;75286;52.218;5.180;2024-02-21T11:52:05;101298.34;;;9.75;92.36
84924;BME280;75286;52.218;5.180;2024-02-21T11:54:30;101277.84;;;9.81;91.43
84924;BME280;75286;52.218;5.180;2024-02-21T11:56:56;101275.72;;;9.85;91.82
84924;BME280;75286;52.218;5.180;2024-02-21T11:59:21;101250.53;;;9.87;92.15
84924;BME280;75286;52.218;5.180;2024-02-21T12:01:48;101245.34;;;9.95;91.73
84924;BME280;75286;52.218;5.180;2024-02-21T12:04:14;101236.06;;;10.09;90.81
84924;BME280;75286;52.218;5.180;2024-02-21T12:06:43;101212.38;;;10.05;91.11
84924;BME280;75286;52.218;5.180;2024-02-21T12:09:09;101215.03;;;10.20;89.60
84924;BME280;75286;52.218;5.180;2024-02-21T12:11:34;101204.84;;;10.26;89.37
84924;BME280;75286;52.218;5.180;2024-02-21T12:14:00;101202.88;;;10.28;90.09
84924;BME280;75286;52.218;5.180;2024-02-21T12:16:32;101195.94;;;10.29;89.75
84924;BME280;75286;52.218;5.180;2024-02-21T12:18:59;101197.72;;;10.28;90.24
84924;BME280;75286;52.218;5.180;2024-02-21T12:21:32;101205.13;;;10.31;90.83
84924;BME280;75286;52.218;5.180;2024-02-21T12:26:41;101178.81;;;10.28;91.22
84924;BME280;75286;52.218;5.180;2024-02-21T12:29:08;101164.81;;;10.22;91.12
84924;BME280;75286;52.218;5.180;2024-02-21T12:31:37;101157.69;;;10.24;91.05
84924;BME280;75286;52.218;5.180;2024-02-21T12:34:03;101152.69;;;10.23;90.90
84924;BME280;75286;52.218;5.180;2024-02-21T12:36:30;101143.16;;;10.23;91.08
84924;BME280;75286;52.218;5.180;2024-02-21T12:38:55;101142.25;;;10.16;91.07
84924;BME280;75286;52.218;5.180;2024-02-21T12:41:21;101124.47;;;10.13;91.31
84924;BME280;75286;52.218;5.180;2024-02-21T12:43:46;101130.09;;;10.25;90.95
84924;BME280;75286;52.218;5.180;2024-02-21T12:46:12;101113.94;;;10.15;90.77
84924;BME280;75286;52.218;5.180;2024-02-21T12:48:37;101103.13;;;10.19;90.47
84924;BME280;75286;52.218;5.180;2024-02-21T12:51:03;101104.41;;;10.23;90.53
84924;BME280;75286;52.218;5.180;2024-02-21T12:53:29;101082.28;;;10.21;89.67
84924;BME280;75286;52.218;5.180;2024-02-21T12:55:55;101093.53;;;10.28;90.54
84924;BME280;75286;52.218;5.180;2024-02-21T12:58:21;101088.00;;;10.31;90.04
84924;BME280;75286;52.218;5.180;2024-02-21T13:00:47;101084.00;;;10.28;90.04
84924;BME280;75286;52.218;5.180;2024-02-21T13:03:12;101063.88;;;10.24;90.12
84924;BME280;75286;52.218;5.180;2024-02-21T13:05:38;101061.19;;;10.32;90.04
84924;BME280;75286;52.218;5.180;2024-02-21T13:08:06;101049.63;;;10.28;90.33
84924;BME280;75286;52.218;5.180;2024-02-21T13:10:32;101048.00;;;10.27;89.76
84924;BME280;75286;52.218;5.180;2024-02-21T13:13:01;101045.09;;;10.30;90.17
84924;BME280;75286;52.218;5.180;2024-02-21T13:15:27;101040.25;;;10.27;90.01
84924;BME280;75286;52.218;5.180;2024-02-21T13:17:53;101035.94;;;10.19;89.86
84924;BME280;75286;52.218;5.180;2024-02-21T13:20:20;101035.25;;;10.25;90.02
84924;BME280;75286;52.218;5.180;2024-02-21T13:22:46;101030.44;;;10.22;90.18
84924;BME280;75286;52.218;5.180;2024-02-21T13:25:11;101026.72;;;10.25;89.95
84924;BME280;75286;52.218;5.180;2024-02-21T13:27:40;101000.69;;;10.26;89.66
84924;BME280;75286;52.218;5.180;2024-02-21T13:30:06;101000.94;;;10.17;90.20
84924;BME280;75286;52.218;5.180;2024-02-21T13:32:34;100989.25;;;10.21;90.24
84924;BME280;75286;52.218;5.180;2024-02-21T13:34:59;100989.75;;;10.24;90.03
84924;BME280;75286;52.218;5.180;2024-02-21T13:37:26;100974.13;;;10.18;90.18